Cape Romanzof LRRS, AK

5:15 PM AKDT on August 28, 2014 (GMT -0800)
Cape Romanzoff | Change Station
CLOSE
Current Station
Airport
Location: Cape Romanzoff,
Elevation: 479 ft
Nearby Weather Stations

Elev 479 ft 61.78 °N, 166.04 °W | Updated 20 minutes ago

Mostly Cloudy
Mostly Cloudy
50 °F
Feels Like 50 °F
N
20
Wind Variable Wind from North

Today
High -- | Low -- °F
--% Chance of Precip.
Yesterday
High -- | Low -- °F
Precip. -- in
7:44 AM 10:24 PM
Waxing Crescent, 11% visible
Pressure 29.74 in
Visibility 10.0 miles
Clouds Mostly Cloudy 1600 ft
Mostly Cloudy 4800 ft
Mostly Cloudy 6500 ft
Dew Point 43 °F
Humidity 77%
Rainfall 0.00 in
Snow Depth Not available.
UV 2 out of 12
Pollen Not available.
Air Quality Not available.
Flu Activity Not available.
METAR PACZ 290055Z AUTO 36017KT 10SM BKN016 BKN048 BKN065 10/06 A2973 RMK AO2 RAB0006E0026SHRAB0026E0051 SLP070 T00990061

More Conditions Fewer Conditions

Pressure 29.74 in
Visibility 10.0 miles
Clouds Mostly Cloudy 1600 ft
Mostly Cloudy 4800 ft
Mostly Cloudy 6500 ft
Dew Point 43 °F
Humidity 77%
Rainfall 0.00 in
Snow Depth Not available.
UV 2 out of 12
Pollen Not available.
Air Quality Not available.
Flu Activity Not available.
METAR PACZ 290055Z AUTO 36017KT 10SM BKN016 BKN048 BKN065 10/06 A2973 RMK AO2 RAB0006E0026SHRAB0026E0051 SLP070 T00990061

More Conditions Fewer Conditions

10-Day Weather Forecast

Almanac

Astronomy

Aug. 28, 2014 Rise Set
Actual Time 7:44 AM AKDT 10:24 PM AKDT
Civil Twilight 6:54 AM AKDT 11:13 PM AKDT
Nautical Twilight 5:47 AM AKDT 12:20 AM AKDT
Astronomical Twilight 3:52 AM AKDT 2:06 AM AKDT
Moon 11:55 AM AKDT (8/28) 10:43 PM AKDT (8/28)
Length of Visible Light 16h 18m
Length of Day
14h 39m
Tomorrow will be 5m 48s shorter.
Waxing Crescent, 11% of the Moon is Illuminated
Today
Waxing Crescent
Sep 2
First Quarter
Sep 8
Full
Sep 15
Last Quarter
Sep 24
New

Today's Extremes

State Highs State Lows

Community

WunderPhotos

Upload Photos

1,748,126 photos uploaded!

Nearby

Snow Depth

Station Depth Elevation
Rocky Point 4 in 500 ft
Mcneil Canyon 1 in 1320 ft
Port Graham 0 in 300 ft
Susitna Valley High 2 in 375 ft
Point Mackenzie 1 in 200 ft

Earthquake Activity

City Distance Mag. Time & Date
No recent earthquake activity has been reported nearby.
Minimum magnitude displayed is 2.5.

Coastal Water Temperatures

Place Temperature
No Stations Reporting

Nearby Weather Stations